createdAt,value
2018-05-18T00:01:01.904Z,66.10
2018-05-18T00:03:34.266Z,66.40
2018-05-18T00:06:01.769Z,66.30
2018-05-18T00:08:29.298Z,66.10
2018-05-18T00:10:56.846Z,66.10
2018-05-18T00:13:24.361Z,66.40
2018-05-18T00:15:52.593Z,66.60
2018-05-18T00:18:20.416Z,67.00
2018-05-18T00:20:47.918Z,67.20
2018-05-18T00:23:15.413Z,67.50
2018-05-18T00:25:42.936Z,67.80
2018-05-18T00:28:10.466Z,68.30
2018-05-18T00:30:37.979Z,68.60
2018-05-18T00:33:06.250Z,69.20
2018-05-18T00:35:34.547Z,68.90
2018-05-18T00:38:02.420Z,68.90
2018-05-18T00:40:29.929Z,68.40
2018-05-18T00:42:58.013Z,68.00
2018-05-18T00:45:26.285Z,68.50
2018-05-18T00:47:57.533Z,67.80
2018-05-18T00:50:25.098Z,67.50
2018-05-18T00:52:52.596Z,68.10
2018-05-18T00:55:31.970Z,69.00
2018-05-18T00:57:59.475Z,68.70
2018-05-18T01:00:35.570Z,68.40
2018-05-18T01:03:03.075Z,68.70
2018-05-18T01:05:31.384Z,68.60
2018-05-18T01:07:58.992Z,68.60
2018-05-18T01:10:26.521Z,68.80
2018-05-18T01:12:54.039Z,68.60
2018-05-18T01:15:22.306Z,68.60
2018-05-18T01:17:50.867Z,68.90
2018-05-18T01:20:18.372Z,68.80
2018-05-18T01:22:45.902Z,68.80
2018-05-18T01:25:17.299Z,68.80
2018-05-18T01:37:29.867Z,69.10
2018-05-18T01:39:57.384Z,71.10
2018-05-18T01:42:24.877Z,70.70
2018-05-18T01:44:52.405Z,70.60
2018-05-18T01:47:19.905Z,69.60
2018-05-18T01:49:47.426Z,69.20
2018-05-18T01:52:14.934Z,69.10
2018-05-18T01:54:42.447Z,68.80
2018-05-18T01:57:10.799Z,69.50
2018-05-18T01:59:38.549Z,69.40
2018-05-18T02:02:06.941Z,69.60
2018-05-18T02:04:36.410Z,69.40
2018-05-18T02:07:04.683Z,69.70
2018-05-18T02:09:32.185Z,69.30
2018-05-18T02:11:59.719Z,69.10
2018-05-18T02:14:27.201Z,69.00
2018-05-18T02:16:55.191Z,69.10
2018-05-18T02:19:23.486Z,69.20
2018-05-18T02:21:52.133Z,68.80
2018-05-18T02:24:24.407Z,68.80
2018-05-18T02:26:56.954Z,68.70
2018-05-18T02:29:24.925Z,68.80
2018-05-18T02:31:56.469Z,68.90
2018-05-18T02:34:28.162Z,69.10
2018-05-18T02:36:56.544Z,69.40
2018-05-18T02:39:24.073Z,69.20
2018-05-18T02:41:51.601Z,69.30
2018-05-18T02:44:19.985Z,68.70
2018-05-18T02:46:47.411Z,68.70
2018-05-18T02:49:23.085Z,68.40
2018-05-18T02:51:51.352Z,68.50
2018-05-18T02:54:24.140Z,68.50
2018-05-18T02:56:52.414Z,68.50
2018-05-18T02:59:20.681Z,68.20
2018-05-18T03:01:48.179Z,68.10
2018-05-18T03:04:19.878Z,67.90
2018-05-18T03:06:47.870Z,67.40
2018-05-18T03:09:16.898Z,67.50
2018-05-18T03:11:44.438Z,67.50
2018-05-18T03:14:12.715Z,68.20
2018-05-18T03:16:40.988Z,68.50
2018-05-18T03:19:09.265Z,68.60
2018-05-18T03:21:37.564Z,68.80
2018-05-18T03:24:05.068Z,68.80
2018-05-18T03:26:32.593Z,69.20
2018-05-18T03:29:00.137Z,69.20
2018-05-18T03:31:27.653Z,69.60
2018-05-18T03:33:55.818Z,69.90
2018-05-18T03:36:24.102Z,69.70
2018-05-18T03:38:51.621Z,69.10
2018-05-18T03:41:19.171Z,69.70
2018-05-18T03:43:46.673Z,69.80
2018-05-18T03:46:18.145Z,69.40
2018-05-18T03:48:46.512Z,69.40
2018-05-18T03:51:14.836Z,69.00
2018-05-18T03:53:46.356Z,68.90
2018-05-18T03:56:13.861Z,68.90
2018-05-18T03:58:41.375Z,68.80
2018-05-18T04:01:08.874Z,68.90
2018-05-18T12:40:40.065Z,59.50
2018-05-18T12:45:43.197Z,58.10
2018-05-18T12:48:10.717Z,57.40
2018-05-18T12:50:38.227Z,57.60
2018-05-18T12:53:05.787Z,57.20
2018-05-18T12:55:37.942Z,57.60
2018-05-18T12:58:05.481Z,57.30
2018-05-18T13:00:33.745Z,57.50
2018-05-18T13:03:02.034Z,56.40
2018-05-18T13:05:29.562Z,56.30
2018-05-18T13:07:57.105Z,57.00
2018-05-18T13:10:24.747Z,56.60
2018-05-18T13:12:53.413Z,57.20
2018-05-18T13:15:20.925Z,57.20
2018-05-18T13:17:48.461Z,57.60
2018-05-18T13:20:16.049Z,57.40
2018-05-18T13:22:43.565Z,57.40
2018-05-18T13:25:15.162Z,56.80
2018-05-18T13:27:42.725Z,57.10
2018-05-18T13:30:10.237Z,57.00
2018-05-18T13:32:38.663Z,57.00
2018-05-18T13:35:06.163Z,56.30
2018-05-18T13:37:33.711Z,55.90
2018-05-18T13:40:06.015Z,56.30
2018-05-18T13:42:33.543Z,56.30
2018-05-18T13:45:05.491Z,57.00
2018-05-18T13:47:32.989Z,56.90
2018-05-18T13:50:00.531Z,55.70
2018-05-18T13:52:28.066Z,56.40
2018-05-18T13:54:55.658Z,57.00
2018-05-18T13:57:23.316Z,57.00
2018-05-18T13:59:54.790Z,57.20
2018-05-18T14:02:22.330Z,56.80
2018-05-18T14:04:49.858Z,57.20
2018-05-18T14:07:17.378Z,56.60
2018-05-18T14:09:45.784Z,57.40
2018-05-18T14:12:13.435Z,57.20
2018-05-18T14:14:40.975Z,56.50
2018-05-18T14:17:09.352Z,57.20
2018-05-18T14:19:36.876Z,55.70
2018-05-18T14:22:12.245Z,56.40
2018-05-18T14:24:43.939Z,56.30
2018-05-18T14:27:11.475Z,56.50
2018-05-18T14:29:38.998Z,56.10
2018-05-18T14:32:12.058Z,56.20
2018-05-18T14:34:39.574Z,56.20
2018-05-18T14:37:07.099Z,56.10
2018-05-18T14:39:35.369Z,56.10
2018-05-18T14:42:03.661Z,56.20
2018-05-18T14:44:32.814Z,56.50
2018-05-18T14:47:00.708Z,56.50
2018-05-18T14:49:29.851Z,56.00
2018-05-18T14:51:57.371Z,56.00
2018-05-18T14:54:26.150Z,54.80
2018-05-18T14:56:54.267Z,54.80
2018-05-18T14:59:21.806Z,55.50
2018-05-18T15:01:49.341Z,55.50
2018-05-18T15:04:16.845Z,55.20
2018-05-18T15:06:44.382Z,55.90
2018-05-18T15:09:12.688Z,55.70
2018-05-18T15:11:40.826Z,55.70
2018-05-18T15:14:09.162Z,54.40
2018-05-18T15:16:36.677Z,54.40
2018-05-18T15:19:04.260Z,54.60
2018-05-18T15:21:32.188Z,54.20
2018-05-18T15:24:00.668Z,54.70
2018-05-18T15:26:28.960Z,54.30
2018-05-18T15:29:00.718Z,54.20
2018-05-18T15:31:32.451Z,54.60
2018-05-18T15:34:03.718Z,54.50
2018-05-18T15:36:32.891Z,54.60
2018-05-18T15:39:00.442Z,54.60
2018-05-18T15:41:28.705Z,54.60
2018-05-18T15:43:56.206Z,54.40
2018-05-18T15:46:24.502Z,54.50
2018-05-18T15:48:52.002Z,54.50
2018-05-18T15:51:22.437Z,54.50
2018-05-18T15:53:49.952Z,55.70
2018-05-18T15:56:17.475Z,54.10
2018-05-18T15:58:45.897Z,55.00
2018-05-18T16:01:13.443Z,55.00
2018-05-18T16:03:41.596Z,55.00
2018-05-18T16:06:10.255Z,55.40
2018-05-18T16:08:37.794Z,55.40
2018-05-18T16:11:05.781Z,55.60
2018-05-18T16:13:33.315Z,55.40
2018-05-18T16:16:00.819Z,55.10
2018-05-18T16:18:29.110Z,55.00
2018-05-18T16:20:57.424Z,54.90
2018-05-18T16:23:25.675Z,54.70
2018-05-18T16:25:53.185Z,54.70
2018-05-18T16:28:20.728Z,54.30
2018-05-18T16:30:52.237Z,55.00
2018-05-18T16:33:20.514Z,54.90
2018-05-18T16:35:49.697Z,54.40
2018-05-18T16:38:17.210Z,54.40
2018-05-18T16:40:45.011Z,55.60
2018-05-18T16:43:13.114Z,54.90
2018-05-18T16:45:41.516Z,54.80
2018-05-18T16:48:09.026Z,54.80
2018-05-18T16:50:36.550Z,54.40
2018-05-18T16:53:04.058Z,55.50
2018-05-18T16:55:32.519Z,54.40
2018-05-18T16:58:00.882Z,54.50
2018-05-18T17:00:29.031Z,55.90
2018-05-18T17:02:56.556Z,55.20
2018-05-18T17:05:24.817Z,55.30
2018-05-18T17:07:52.339Z,55.30
2018-05-18T17:10:19.858Z,55.50
2018-05-18T17:12:49.600Z,55.00
2018-05-18T17:15:17.110Z,55.00
2018-05-18T17:17:45.407Z,54.30
2018-05-18T17:20:13.681Z,54.60
2018-05-18T17:22:42.034Z,55.00
2018-05-18T17:25:09.552Z,55.00
2018-05-18T17:27:37.101Z,55.30
2018-05-18T17:30:04.599Z,55.80
2018-05-18T17:32:32.127Z,55.00
2018-05-18T17:35:04.356Z,55.60
2018-05-18T17:37:32.880Z,56.30
2018-05-18T17:40:00.418Z,56.20
2018-05-18T17:42:27.960Z,56.70
2018-05-18T17:44:55.454Z,56.00
2018-05-18T17:47:22.973Z,56.20
2018-05-18T17:59:36.419Z,57.80
2018-05-18T18:02:03.942Z,57.60
2018-05-18T18:04:32.348Z,57.90
2018-05-18T18:06:59.863Z,57.90
2018-05-18T18:09:27.370Z,57.80
2018-05-18T18:11:54.901Z,56.30
2018-05-18T18:14:23.263Z,56.90
2018-05-18T18:16:50.791Z,56.90
2018-05-18T18:19:18.339Z,57.10
2018-05-18T18:21:45.871Z,57.70
2018-05-18T18:24:13.377Z,58.40
2018-05-18T18:26:40.931Z,58.70
2018-05-18T18:29:08.521Z,59.30
2018-05-18T18:31:36.059Z,59.10
2018-05-18T18:34:03.986Z,59.40
2018-05-18T18:36:32.113Z,59.10
2018-05-18T18:38:59.656Z,59.20
2018-05-18T18:41:27.231Z,59.10
2018-05-18T18:43:55.168Z,59.50
2018-05-18T18:46:22.674Z,59.90
2018-05-18T18:48:50.972Z,60.30
2018-05-18T18:51:18.499Z,60.30
2018-05-18T18:53:46.745Z,60.50
2018-05-18T18:56:14.268Z,60.80
2018-05-18T18:58:41.823Z,60.70
2018-05-18T19:01:09.412Z,60.90
2018-05-18T19:03:36.938Z,60.50
2018-05-18T19:06:05.218Z,60.60
2018-05-18T19:08:33.595Z,60.80
2018-05-18T19:11:01.841Z,60.80
2018-05-18T19:13:29.342Z,60.80
2018-05-18T19:15:56.872Z,60.70
2018-05-18T19:18:24.373Z,61.30
2018-05-18T19:20:52.271Z,61.00
2018-05-18T19:23:19.810Z,61.80
2018-05-18T19:25:47.653Z,61.60
2018-05-18T19:28:15.215Z,61.60
2018-05-18T19:30:43.351Z,62.20
2018-05-18T19:33:10.902Z,62.50
2018-05-18T19:35:38.415Z,62.00
2018-05-18T19:38:05.935Z,62.30
2018-05-18T19:40:34.226Z,63.10
2018-05-18T19:43:02.584Z,63.10
2018-05-18T19:45:31.560Z,63.10
2018-05-18T19:47:59.077Z,63.70
2018-05-18T19:50:26.622Z,63.20
2018-05-18T19:52:54.131Z,63.40
2018-05-18T19:55:21.674Z,63.70
2018-05-18T19:57:49.198Z,63.70
2018-05-18T20:00:17.499Z,64.20
2018-05-18T20:02:45.470Z,64.10
2018-05-18T20:05:13.461Z,64.40
2018-05-18T20:07:40.969Z,64.40
2018-05-18T20:10:09.402Z,64.90
2018-05-18T20:12:37.943Z,64.90
2018-05-18T20:15:05.833Z,65.10
2018-05-18T20:17:33.421Z,64.10
2018-05-18T20:20:04.857Z,64.70
2018-05-18T20:22:32.375Z,64.90
2018-05-18T20:24:59.938Z,65.00
2018-05-18T20:27:27.450Z,64.90
2018-05-18T20:29:55.413Z,65.20
2018-05-18T20:32:22.971Z,65.00
2018-05-18T20:34:51.078Z,64.90
2018-05-18T20:37:18.598Z,64.70
2018-05-18T20:39:46.107Z,64.70
2018-05-18T20:42:14.407Z,64.80
2018-05-18T20:44:42.612Z,64.80
2018-05-18T20:47:10.871Z,65.20
2018-05-18T20:49:38.390Z,65.00
2018-05-18T20:52:06.686Z,64.80
2018-05-18T20:54:35.731Z,64.70
2018-05-18T20:57:03.273Z,64.70
2018-05-18T20:59:30.793Z,64.80
2018-05-18T21:01:59.097Z,64.90
2018-05-18T21:04:26.648Z,64.80
2018-05-18T21:06:54.195Z,64.70
2018-05-18T21:09:22.489Z,64.90
2018-05-18T21:11:50.015Z,64.90
2018-05-18T21:14:17.851Z,64.50
2018-05-18T21:16:49.412Z,64.40
2018-05-18T21:19:17.209Z,65.10
2018-05-18T21:21:46.213Z,65.40
2018-05-18T21:24:15.218Z,64.80
2018-05-18T21:26:43.816Z,64.80
2018-05-18T21:29:11.342Z,65.30
2018-05-18T21:31:40.197Z,65.60
2018-05-18T21:34:07.714Z,65.50
2018-05-18T21:36:36.086Z,65.70
2018-05-18T21:39:03.592Z,66.10
2018-05-18T21:41:31.149Z,65.90
2018-05-18T21:43:59.532Z,65.80
2018-05-18T21:46:27.506Z,65.60
2018-05-18T21:48:55.031Z,65.60
2018-05-18T21:51:24.956Z,65.60
2018-05-18T21:53:53.506Z,65.50
2018-05-18T21:56:22.354Z,65.40
2018-05-18T21:58:50.605Z,65.40
2018-05-18T22:01:22.710Z,65.70
2018-05-18T22:03:50.873Z,65.50
2018-05-18T22:06:18.388Z,65.80
2018-05-18T22:08:49.691Z,65.80
2018-05-18T22:11:20.791Z,64.80
2018-05-18T22:13:54.125Z,64.90
2018-05-18T22:16:21.643Z,65.10
2018-05-18T22:18:49.446Z,64.80
2018-05-18T22:21:16.959Z,64.90
2018-05-18T22:23:45.148Z,65.60
2018-05-18T22:26:12.717Z,66.00
2018-05-18T22:28:40.241Z,65.80
2018-05-18T22:31:07.783Z,66.30
2018-05-18T22:33:36.071Z,67.20
2018-05-18T22:36:04.688Z,67.10
2018-05-18T22:38:32.316Z,67.20
2018-05-18T22:41:00.595Z,67.00
2018-05-18T22:43:32.847Z,67.20
2018-05-18T22:46:00.963Z,67.20
2018-05-18T22:48:28.476Z,67.70
2018-05-18T22:51:00.465Z,68.00
2018-05-18T22:53:28.735Z,68.60
2018-05-18T22:55:57.168Z,68.80
2018-05-18T22:58:24.688Z,68.80
2018-05-18T23:00:52.318Z,68.90
2018-05-18T23:03:20.569Z,68.90
2018-05-18T23:05:48.113Z,69.60
2018-05-18T23:08:15.681Z,68.40
2018-05-18T23:10:43.214Z,68.50
2018-05-18T23:13:10.727Z,67.90
2018-05-18T23:15:39.074Z,68.70
2018-05-18T23:18:06.712Z,68.60
2018-05-18T23:20:34.234Z,68.80
2018-05-18T23:23:01.761Z,69.30
2018-05-18T23:25:29.262Z,69.30
2018-05-18T23:27:57.545Z,69.10
2018-05-18T23:30:25.821Z,68.50
2018-05-18T23:32:54.834Z,68.80
2018-05-18T23:35:22.342Z,68.80
2018-05-18T23:37:49.863Z,69.00
2018-05-18T23:40:17.365Z,68.60
2018-05-18T23:42:44.890Z,68.50
2018-05-18T23:45:13.079Z,68.90
2018-05-18T23:47:40.581Z,68.60
2018-05-18T23:50:12.965Z,67.80
2018-05-18T23:52:40.469Z,67.80
2018-05-18T23:55:08.696Z,67.80
2018-05-18T23:57:36.962Z,67.90
